Time;durP1;ratioP1;P1;durP2;ratioP2;P2;SDS_P1;SDS_P2;PMS_P1;PMS_P2;Temp;Humidity;BMP_temperature;BMP_pressure;BME280_temperature;BME280_humidity;BME280_pressure;Samples;Min_cycle;Max_cycle;Signal;HPM_P1;HPM_P2
2024/01/17 00:00:21;;;;;;;81.30;35.37;;;-5.20;85.30;;;;;;10339224;28;20199;-80
2024/01/17 00:05:42;;;;;;;77.40;31.07;;;-5.10;99.90;;;;;;10309671;28;20236;-80
2024/01/17 00:11:04;;;;;;;70.97;29.17;;;-5.00;99.90;;;;;;10365074;28;20497;-80
2024/01/17 00:16:26;;;;;;;78.27;31.07;;;-4.90;99.90;;;;;;10307941;28;20208;-80
2024/01/17 00:21:51;;;;;;;83.10;33.03;;;-4.90;99.90;;;;;;10376701;28;20305;-81
2024/01/17 00:27:16;;;;;;;89.93;35.70;;;-4.90;99.90;;;;;;10409788;28;20206;-80
2024/01/17 00:32:39;;;;;;;75.90;33.53;;;-4.90;99.90;;;;;;10518161;28;20191;-80
2024/01/17 00:38:03;;;;;;;71.63;30.53;;;-4.80;99.90;;;;;;10504718;28;20200;-81
2024/01/17 00:43:27;;;;;;;65.73;28.70;;;-4.80;99.90;;;;;;10531925;28;20222;-81
2024/01/17 00:48:48;;;;;;;55.93;27.40;;;-4.70;99.90;;;;;;10504087;28;20195;-81
2024/01/17 00:54:11;;;;;;;60.70;24.77;;;-4.60;99.90;;;;;;10314012;28;20346;-81
2024/01/17 00:59:32;;;;;;;66.53;25.40;;;-4.50;99.90;;;;;;10360803;28;20195;-81
2024/01/17 01:04:53;;;;;;;63.13;27.30;;;-4.50;99.90;;;;;;10392443;28;20458;-81
2024/01/17 01:10:15;;;;;;;60.73;24.23;;;-4.40;99.90;;;;;;10392195;28;20205;-81
2024/01/17 01:15:36;;;;;;;63.07;24.87;;;-4.50;1.00;;;;;;10382445;28;20217;-80
2024/01/17 01:20:58;;;;;;;55.27;23.77;;;-4.40;1.00;;;;;;10397011;28;20242;-81
2024/01/17 01:26:20;;;;;;;52.43;24.17;;;-4.40;99.90;;;;;;10360991;28;20202;-81
2024/01/17 01:31:41;;;;;;;56.83;24.47;;;-4.30;1.00;;;;;;10494246;28;20206;-81
2024/01/17 01:37:02;;;;;;;53.23;22.53;;;-4.30;1.00;;;;;;10525106;28;20208;-80
2024/01/17 01:42:23;;;;;;;41.67;21.53;;;-4.30;1.00;;;;;;10348654;28;20238;-80
2024/01/17 01:47:45;;;;;;;47.57;21.67;;;-4.20;1.00;;;;;;10273323;28;20195;-81
2024/01/17 01:53:06;;;;;;;46.47;23.30;;;-4.20;1.00;;;;;;10259159;28;20195;-81
2024/01/17 01:58:29;;;;;;;49.03;23.40;;;-4.10;1.00;;;;;;10386898;28;20203;-81
2024/01/17 02:03:53;;;;;;;45.50;20.93;;;-4.00;1.00;;;;;;10312656;28;20226;-80
2024/01/17 02:09:16;;;;;;;44.17;20.90;;;-4.00;1.00;;;;;;10313423;28;20219;-78
2024/01/17 02:14:41;;;;;;;52.87;22.10;;;-4.00;1.00;;;;;;10367190;28;20256;-79
2024/01/17 02:20:03;;;;;;;42.97;21.07;;;-3.90;1.00;;;;;;10311963;28;20250;-80
2024/01/17 02:25:24;;;;;;;47.17;22.00;;;-3.90;1.00;;;;;;10330210;28;20229;-81
2024/01/17 02:30:46;;;;;;;52.47;22.50;;;-3.80;1.00;;;;;;10459213;28;20492;-81
2024/01/17 02:36:07;;;;;;;45.53;21.20;;;-3.90;91.50;;;;;;10522745;28;20391;-80
2024/01/17 02:41:28;;;;;;;43.07;21.40;;;-3.90;41.60;;;;;;10508283;28;20206;-81
2024/01/17 02:46:50;;;;;;;45.83;20.90;;;-3.80;99.90;;;;;;10508259;28;20474;-81
2024/01/17 02:52:11;;;;;;;38.97;19.77;;;-3.70;99.90;;;;;;10507776;28;20203;-81
2024/01/17 02:57:32;;;;;;;39.27;19.43;;;-3.70;26.60;;;;;;10427393;28;20258;-80
2024/01/17 03:02:53;;;;;;;44.23;21.10;;;-3.60;99.90;;;;;;10309044;28;20277;-80
2024/01/17 03:08:15;;;;;;;40.03;19.97;;;-3.60;99.90;;;;;;10296849;28;20200;-81
2024/01/17 03:13:36;;;;;;;38.90;19.73;;;-3.60;99.90;;;;;;10395037;28;20208;-81
2024/01/17 03:18:57;;;;;;;41.87;21.23;;;-3.40;99.90;;;;;;10381770;28;20233;-81
2024/01/17 03:24:19;;;;;;;46.37;20.90;;;-3.40;99.90;;;;;;10395025;28;20224;-81
2024/01/17 03:29:40;;;;;;;41.17;20.53;;;-3.40;1.00;;;;;;10389283;28;20383;-81
2024/01/17 03:35:02;;;;;;;40.93;20.83;;;-3.30;1.00;;;;;;10506005;28;20200;-82
2024/01/17 03:40:23;;;;;;;45.97;21.67;;;-3.30;1.00;;;;;;10504821;28;20202;-80
2024/01/17 03:45:45;;;;;;;45.17;23.27;;;-3.20;1.00;;;;;;10505471;28;20230;-81
2024/01/17 03:51:07;;;;;;;38.00;20.60;;;-3.10;99.90;;;;;;10520047;28;20198;-81
2024/01/17 03:56:28;;;;;;;42.43;23.07;;;-3.10;99.90;;;;;;10385315;28;20273;-81
2024/01/17 04:01:49;;;;;;;48.27;23.00;;;-3.10;1.00;;;;;;10393853;28;20365;-80
2024/01/17 04:07:11;;;;;;;50.33;24.43;;;-3.10;1.00;;;;;;10326767;28;20252;-79
2024/01/17 04:12:32;;;;;;;48.87;24.40;;;-3.10;1.00;;;;;;10394451;28;20256;-80
2024/01/17 04:17:53;;;;;;;46.93;24.03;;;-3.10;1.00;;;;;;10366828;28;20227;-80
2024/01/17 04:23:18;;;;;;;50.10;25.37;;;-3.00;1.00;;;;;;10334707;28;20236;-79
2024/01/17 04:28:39;;;;;;;55.03;26.57;;;-3.00;1.00;;;;;;10452124;28;20199;-80
2024/01/17 04:34:03;;;;;;;46.47;23.60;;;-2.90;1.00;;;;;;10518776;28;20195;-81
2024/01/17 04:39:24;;;;;;;37.00;21.00;;;-3.00;99.90;;;;;;10518072;28;20262;-80
2024/01/17 04:44:48;;;;;;;46.13;22.80;;;-2.90;99.90;;;;;;10503657;28;20223;-80
2024/01/17 04:50:10;;;;;;;67.60;31.73;;;-2.90;1.00;;;;;;10532158;28;20189;-80
2024/01/17 04:55:33;;;;;;;55.27;26.23;;;-2.90;99.90;;;;;;10436386;28;20527;-80
2024/01/17 05:00:55;;;;;;;49.60;25.57;;;-3.00;1.00;;;;;;10373847;28;20233;-80
2024/01/17 05:06:16;;;;;;;46.73;23.37;;;-3.00;1.00;;;;;;10300713;28;20565;-80
2024/01/17 05:11:38;;;;;;;50.17;24.83;;;-3.00;1.00;;;;;;10288719;28;20204;-79
2024/01/17 05:16:58;;;;;;;54.37;23.53;;;-3.00;99.90;;;;;;10393357;28;20283;-80
2024/01/17 05:22:20;;;;;;;61.60;27.50;;;-3.00;1.00;;;;;;10400887;28;20218;-79
2024/01/17 05:27:41;;;;;;;56.03;25.40;;;-3.00;99.90;;;;;;10386755;28;20214;-80
2024/01/17 05:33:03;;;;;;;59.80;25.53;;;-2.90;1.00;;;;;;10513979;28;20439;-79
2024/01/17 05:38:25;;;;;;;62.60;28.93;;;-2.80;1.00;;;;;;10524225;28;20206;-80
2024/01/17 05:43:47;;;;;;;60.37;27.67;;;-2.70;1.00;;;;;;10509754;28;20218;-80
2024/01/17 05:49:09;;;;;;;60.07;29.43;;;-2.70;1.00;;;;;;10526647;28;20216;-79
2024/01/17 05:54:31;;;;;;;69.17;28.77;;;-2.60;99.90;;;;;;10474983;28;20201;-80
2024/01/17 05:59:53;;;;;;;73.37;31.33;;;-2.50;1.00;;;;;;10359377;28;20198;-80
2024/01/17 06:05:16;;;;;;;140.43;42.07;;;-2.50;87.00;;;;;;10295285;28;20214;-79
2024/01/17 06:10:40;;;;;;;157.70;44.93;;;-2.50;99.90;;;;;;10298110;28;20195;-80
2024/01/17 06:16:01;;;;;;;138.03;51.83;;;-2.50;33.60;;;;;;10339226;28;20403;-80
2024/01/17 06:21:22;;;;;;;133.93;57.83;;;-2.40;1.00;;;;;;10324983;28;20199;-79
2024/01/17 06:26:44;;;;;;;73.93;31.97;;;-2.30;1.00;;;;;;10292507;28;20304;-80
2024/01/17 06:32:05;;;;;;;163.73;55.27;;;-2.40;1.00;;;;;;10511445;28;20375;-80
2024/01/17 06:37:27;;;;;;;92.07;35.83;;;-2.50;99.90;;;;;;10507944;28;20278;-80
2024/01/17 06:42:48;;;;;;;83.80;31.63;;;-2.20;1.00;;;;;;10507737;28;20222;-80
2024/01/17 06:48:09;;;;;;;106.87;38.33;;;-2.20;99.90;;;;;;10507660;28;20199;-80
2024/01/17 06:53:34;;;;;;;107.53;41.67;;;-2.20;99.90;;;;;;10521560;28;20261;-80
2024/01/17 06:58:56;;;;;;;104.33;39.77;;;-2.20;99.90;;;;;;10359076;28;20204;-80
2024/01/17 07:04:17;;;;;;;89.53;33.87;;;-2.10;38.30;;;;;;10373696;28;20249;-81
2024/01/17 07:09:39;;;;;;;106.57;38.87;;;-1.90;99.90;;;;;;10342406;28;20433;-80
2024/01/17 07:15:00;;;;;;;82.87;35.53;;;-1.80;1.00;;;;;;10309654;28;20212;-81
2024/01/17 07:20:21;;;;;;;92.63;40.17;;;-1.80;1.00;;;;;;10396107;28;20234;-80
2024/01/17 07:25:43;;;;;;;89.57;39.33;;;-1.70;1.00;;;;;;10299050;28;20246;-81
2024/01/17 07:31:05;;;;;;;96.90;36.77;;;-1.60;1.00;;;;;;10357683;28;20191;-80
2024/01/17 07:36:26;;;;;;;115.63;40.70;;;-1.60;1.00;;;;;;10346725;28;20248;-81
2024/01/17 07:41:48;;;;;;;88.10;35.53;;;-1.50;1.00;;;;;;10395135;28;20200;-80
2024/01/17 07:47:09;;;;;;;81.17;37.80;;;-1.40;1.00;;;;;;10379266;28;20230;-80
2024/01/17 07:52:31;;;;;;;56.57;27.90;;;-1.40;99.90;;;;;;10379399;28;20236;-81
2024/01/17 07:57:52;;;;;;;56.90;27.47;;;-1.30;99.90;;;;;;10322052;28;20480;-80
2024/01/17 08:03:13;;;;;;;63.83;30.93;;;-1.20;1.00;;;;;;10375576;28;20226;-80
2024/01/17 08:08:35;;;;;;;58.07;29.20;;;-1.30;1.00;;;;;;10272279;28;20282;-80
2024/01/17 08:13:56;;;;;;;49.97;28.17;;;-1.20;99.90;;;;;;10378073;28;20498;-81
2024/01/17 08:19:18;;;;;;;54.40;25.70;;;-1.20;99.90;;;;;;10307630;28;20494;-81
2024/01/17 08:24:41;;;;;;;39.27;19.63;;;-1.10;99.90;;;;;;10378885;28;20305;-81
2024/01/17 08:30:09;;;;;;;43.83;22.90;;;-1.10;1.00;;;;;;10346501;28;20230;-83
2024/01/17 08:35:31;;;;;;;53.10;24.77;;;-1.00;99.90;;;;;;10389490;28;20203;-79
2024/01/17 08:40:52;;;;;;;36.33;17.67;;;-1.00;1.00;;;;;;10289540;28;20405;-80
2024/01/17 08:46:14;;;;;;;30.03;16.47;;;-0.90;99.90;;;;;;10285835;28;20247;-80
2024/01/17 08:51:36;;;;;;;31.23;17.37;;;-0.90;1.00;;;;;;10386099;28;20206;-80
2024/01/17 08:56:57;;;;;;;32.13;16.70;;;-0.90;1.00;;;;;;10301664;28;20470;-80
2024/01/17 09:02:19;;;;;;;31.03;16.57;;;-1.00;1.00;;;;;;10319392;28;20288;-80
2024/01/17 09:07:43;;;;;;;37.43;20.00;;;-0.80;99.90;;;;;;10359521;28;20238;-83
2024/01/17 09:13:04;;;;;;;27.13;14.83;;;-0.80;1.00;;;;;;10301836;28;20253;-81
2024/01/17 09:18:26;;;;;;;36.37;21.67;;;-0.80;26.30;;;;;;10382395;28;20263;-80
2024/01/17 09:23:47;;;;;;;31.07;17.40;;;-0.80;1.00;;;;;;10297670;28;20558;-80
2024/01/17 09:29:10;;;;;;;36.57;20.70;;;-0.80;99.90;;;;;;10316227;28;20212;-76
2024/01/17 09:34:32;;;;;;;30.80;17.17;;;-0.80;99.90;;;;;;10334556;28;20211;-79
2024/01/17 09:39:54;;;;;;;31.80;18.70;;;-0.70;1.00;;;;;;10410536;28;20400;-78
2024/01/17 09:45:17;;;;;;;32.57;17.80;;;-0.80;1.00;;;;;;10408590;28;20542;-81
2024/01/17 09:50:39;;;;;;;31.20;17.60;;;-0.70;1.00;;;;;;10409777;28;20230;-81
2024/01/17 09:56:02;;;;;;;30.87;18.23;;;-0.70;1.00;;;;;;10337154;28;20240;-80
2024/01/17 10:01:25;;;;;;;33.97;16.53;;;-0.50;1.00;;;;;;10346154;28;20221;-82
2024/01/17 10:06:48;;;;;;;41.07;21.57;;;-0.50;1.00;;;;;;10310944;28;20235;-80
2024/01/17 10:12:11;;;;;;;30.03;16.67;;;-0.40;1.00;;;;;;10308636;28;20201;-78
2024/01/17 10:17:36;;;;;;;35.30;19.37;;;-0.30;41.50;;;;;;10289878;28;20252;-77
2024/01/17 10:22:57;;;;;;;38.17;20.23;;;-0.10;1.00;;;;;;10406573;28;20216;-79
2024/01/17 10:28:18;;;;;;;35.87;19.17;;;0.10;1.00;;;;;;10446857;28;20212;-77
2024/01/17 10:33:41;;;;;;;34.43;18.57;;;0.00;1.00;;;;;;10345730;28;20303;-77
2024/01/17 10:39:06;;;;;;;37.40;17.93;;;-0.10;1.00;;;;;;10350267;28;20194;-77
2024/01/17 10:44:28;;;;;;;39.80;19.87;;;0.10;99.90;;;;;;10407287;28;20234;-78
2024/01/17 10:49:51;;;;;;;29.20;17.03;;;0.30;99.90;;;;;;10305685;28;20208;-81
2024/01/17 10:55:17;;;;;;;61.63;26.83;;;0.60;1.00;;;;;;10405373;28;20298;-76
2024/01/17 11:00:43;;;;;;;63.63;24.40;;;0.90;1.00;;;;;;10305865;28;20215;-77
2024/01/17 11:06:05;;;;;;;45.30;21.80;;;1.00;1.00;;;;;;10306626;28;20229;-77
2024/01/17 11:11:28;;;;;;;39.77;19.63;;;1.40;99.90;;;;;;10306141;28;20247;-81
2024/01/17 11:16:52;;;;;;;40.27;18.73;;;1.60;99.90;;;;;;10305419;28;20401;-79
2024/01/17 11:22:16;;;;;;;47.30;20.87;;;1.50;26.10;;;;;;10303857;28;20224;-76
2024/01/17 11:27:46;;;;;;;40.20;19.70;;;1.50;1.00;;;;;;10331908;28;20321;-78
2024/01/17 11:33:13;;;;;;;61.80;24.37;;;1.50;1.00;;;;;;10330848;28;20388;-76
2024/01/17 11:38:34;;;;;;;27.33;14.53;;;1.20;1.50;;;;;;10304507;28;20204;-80
2024/01/17 11:43:55;;;;;;;26.57;14.27;;;1.20;1.00;;;;;;10303524;28;20255;-78
2024/01/17 11:49:40;;;;;;;30.17;15.47;;;1.20;1.00;;;;;;10304897;28;20194;-79
2024/01/17 11:55:02;;;;;;;27.37;14.93;;;1.20;1.00;;;;;;10389100;28;20232;-79
2024/01/17 12:00:25;;;;;;;30.67;14.03;;;1.40;1.00;;;;;;10404055;28;20226;-78
2024/01/17 12:05:46;;;;;;;41.27;19.13;;;1.40;1.00;;;;;;10303169;28;20229;-79
2024/01/17 12:11:09;;;;;;;36.93;17.60;;;1.40;1.00;;;;;;10316820;28;20484;-77
2024/01/17 12:16:30;;;;;;;37.27;19.47;;;1.30;1.00;;;;;;10377122;28;20228;-77
2024/01/17 12:21:51;;;;;;;38.03;18.07;;;1.10;1.00;;;;;;10270989;28;20189;-76
2024/01/17 12:27:14;;;;;;;33.63;16.53;;;1.10;1.00;;;;;;10313128;28;20248;-77
2024/01/17 12:32:36;;;;;;;47.53;21.43;;;1.00;1.00;;;;;;10428972;28;20204;-76
2024/01/17 12:37:58;;;;;;;50.30;21.77;;;1.00;1.00;;;;;;10382209;28;20205;-78
2024/01/17 12:43:21;;;;;;;43.63;21.53;;;0.80;1.00;;;;;;10306972;28;20229;-78
2024/01/17 12:48:59;;;;;;;35.33;17.33;;;0.80;1.00;;;;;;10329075;28;20199;-76
2024/01/17 12:54:22;;;;;;;33.60;13.97;;;0.60;1.00;;;;;;10300823;28;20187;-75
2024/01/17 12:59:44;;;;;;;28.40;14.20;;;0.50;1.00;;;;;;10324663;28;20244;-76
2024/01/17 13:05:08;;;;;;;39.20;19.63;;;0.50;1.00;;;;;;10341706;28;20239;-79
2024/01/17 13:10:34;;;;;;;28.03;14.53;;;0.30;1.00;;;;;;10392929;28;20214;-80
2024/01/17 13:15:55;;;;;;;27.73;14.30;;;0.20;1.00;;;;;;10395195;28;20579;-78
2024/01/17 13:21:18;;;;;;;34.97;15.77;;;0.20;1.00;;;;;;10408975;28;20534;-81
2024/01/17 13:26:40;;;;;;;32.50;18.10;;;0.20;1.00;;;;;;10381853;28;20248;-79
2024/01/17 13:32:02;;;;;;;28.60;14.93;;;0.20;1.00;;;;;;10423048;28;20206;-79
2024/01/17 13:37:23;;;;;;;26.50;13.80;;;0.30;1.00;;;;;;10410605;28;20395;-77
2024/01/17 13:42:44;;;;;;;34.67;18.27;;;0.30;1.00;;;;;;10308685;28;20436;-79
2024/01/17 13:48:06;;;;;;;44.53;20.20;;;0.20;1.00;;;;;;10307812;28;20207;-78
2024/01/17 13:53:36;;;;;;;34.57;17.40;;;0.20;1.00;;;;;;10307346;28;20268;-79
2024/01/17 13:58:57;;;;;;;43.00;17.33;;;0.10;1.00;;;;;;10392320;28;20203;-80
2024/01/17 14:04:18;;;;;;;29.23;15.33;;;0.10;1.00;;;;;;10410998;28;20546;-80
2024/01/17 14:09:40;;;;;;;32.87;16.33;;;0.10;1.00;;;;;;10303078;28;20207;-81
2024/01/17 14:15:03;;;;;;;29.50;15.40;;;0.00;1.00;;;;;;10325594;28;20221;-80
2024/01/17 14:20:25;;;;;;;26.60;13.10;;;0.00;1.00;;;;;;10306443;28;20237;-81
2024/01/17 14:25:48;;;;;;;36.20;16.97;;;0.10;1.00;;;;;;10379237;28;20492;-79
2024/01/17 14:31:10;;;;;;;28.17;15.47;;;0.00;1.00;;;;;;10489405;28;20387;-79
2024/01/17 14:36:32;;;;;;;30.43;14.73;;;-0.10;1.00;;;;;;10385342;28;20271;-79
2024/01/17 14:41:55;;;;;;;30.03;15.67;;;-0.20;13.90;;;;;;10336967;28;20777;-76
2024/01/17 14:47:16;;;;;;;38.63;20.77;;;-0.40;51.90;;;;;;10501609;28;20412;-81
2024/01/17 14:52:38;;;;;;;42.87;22.30;;;-0.30;99.90;;;;;;10515681;28;20203;-79
2024/01/17 14:57:59;;;;;;;33.77;18.43;;;-0.40;54.30;;;;;;10331971;28;20233;-77
2024/01/17 15:03:21;;;;;;;41.37;19.47;;;-0.40;54.30;;;;;;10514580;28;20198;-78
2024/01/17 15:08:42;;;;;;;34.37;19.50;;;-0.40;19.80;;;;;;10490105;28;20200;-77
2024/01/17 15:14:04;;;;;;;65.80;33.20;;;-0.50;99.90;;;;;;10375648;28;20215;-77
2024/01/17 15:19:25;;;;;;;36.17;20.10;;;-0.60;99.90;;;;;;10303963;28;20233;-76
2024/01/17 15:24:46;;;;;;;38.13;19.53;;;-0.50;99.90;;;;;;10295829;28;20241;-78
2024/01/17 15:30:09;;;;;;;43.17;21.57;;;-0.70;99.90;;;;;;10394443;28;20223;-78
2024/01/17 15:35:31;;;;;;;46.73;25.33;;;-0.70;93.40;;;;;;10430345;28;20221;-78
2024/01/17 15:40:55;;;;;;;50.97;26.67;;;-0.70;84.40;;;;;;10370121;28;20191;-78
2024/01/17 15:46:17;;;;;;;47.30;25.13;;;-0.80;99.90;;;;;;10488013;28;20229;-79
2024/01/17 15:51:38;;;;;;;46.73;22.17;;;-0.70;99.90;;;;;;10499808;28;20476;-84
2024/01/17 15:56:59;;;;;;;55.00;24.93;;;-0.60;99.90;;;;;;10389249;28;20285;-81
2024/01/17 16:02:21;;;;;;;46.33;22.70;;;-0.70;99.90;;;;;;10292989;28;20213;-81
2024/01/17 16:07:43;;;;;;;36.60;18.70;;;-0.70;99.90;;;;;;10403708;28;20235;-86
2024/01/17 16:13:05;;;;;;;46.40;21.97;;;-0.80;99.90;;;;;;10294696;28;20248;-82
2024/01/17 16:18:27;;;;;;;39.63;21.70;;;-0.70;99.90;;;;;;10307417;28;20456;-82
2024/01/17 16:23:48;;;;;;;54.13;28.77;;;-0.90;99.90;;;;;;10294467;28;20230;-80
2024/01/17 16:29:10;;;;;;;63.10;30.77;;;-0.90;99.90;;;;;;10308803;28;20209;-78
2024/01/17 16:34:31;;;;;;;50.23;24.73;;;-0.80;75.50;;;;;;10254550;29;20192;-79
2024/01/17 16:39:52;;;;;;;47.43;23.83;;;-1.00;99.90;;;;;;10388942;28;20212;-79
2024/01/17 16:45:13;;;;;;;67.30;31.57;;;-1.10;99.90;;;;;;10308422;28;20228;-82
2024/01/17 16:50:35;;;;;;;78.90;37.30;;;-1.20;99.90;;;;;;10313906;28;20194;-78
2024/01/17 16:55:56;;;;;;;59.63;31.77;;;-1.10;99.90;;;;;;10388946;28;20396;-80
2024/01/17 17:01:18;;;;;;;44.97;25.37;;;-1.10;99.90;;;;;;10479157;28;20215;-79
2024/01/17 17:06:41;;;;;;;66.90;35.47;;;-1.10;99.90;;;;;;10525992;28;20232;-81
2024/01/17 17:12:02;;;;;;;58.10;29.10;;;-1.10;99.90;;;;;;10343364;28;20553;-80
2024/01/17 17:17:24;;;;;;;49.93;28.00;;;-1.10;99.90;;;;;;10314849;28;20235;-80
2024/01/17 17:22:45;;;;;;;61.37;30.40;;;-1.10;99.90;;;;;;10416028;28;20280;-78
2024/01/17 17:28:08;;;;;;;61.83;32.40;;;-1.30;99.90;;;;;;10402557;28;20224;-78
2024/01/17 17:33:30;;;;;;;58.13;27.87;;;-1.30;99.90;;;;;;10455867;28;20546;-78
2024/01/17 17:38:51;;;;;;;53.40;26.70;;;-1.40;99.90;;;;;;10483638;28;20196;-79
2024/01/17 17:44:12;;;;;;;72.30;32.57;;;-1.20;99.90;;;;;;10511602;28;20440;-82
2024/01/17 17:49:34;;;;;;;75.10;32.77;;;-1.30;99.90;;;;;;10483342;28;20207;-81
2024/01/17 17:54:59;;;;;;;76.70;34.37;;;-1.40;99.90;;;;;;10438022;28;20201;-79
2024/01/17 18:00:20;;;;;;;104.40;43.80;;;-1.40;99.90;;;;;;10373163;28;20219;-79
2024/01/17 18:05:43;;;;;;;72.97;32.67;;;-1.30;99.90;;;;;;10272748;28;20461;-77
2024/01/17 18:11:06;;;;;;;70.23;33.33;;;-1.30;99.90;;;;;;10381484;28;20220;-79
2024/01/17 18:16:30;;;;;;;96.43;40.93;;;-1.30;99.90;;;;;;10338909;28;20521;-81
2024/01/17 18:21:52;;;;;;;99.07;44.90;;;-1.20;99.90;;;;;;10399589;28;20286;-79
2024/01/17 18:27:14;;;;;;;66.77;32.43;;;-1.20;99.90;;;;;;10299381;28;20227;-80
2024/01/17 18:32:35;;;;;;;102.73;48.03;;;-1.10;99.90;;;;;;10450278;28;20199;-82
2024/01/17 18:37:58;;;;;;;93.67;42.90;;;-1.10;99.90;;;;;;10522523;28;20198;-78
2024/01/17 18:43:19;;;;;;;74.63;36.83;;;-1.30;99.90;;;;;;10523667;28;20201;-79
2024/01/17 18:48:43;;;;;;;87.97;37.30;;;-1.30;99.90;;;;;;10522293;28;20376;-83
2024/01/17 18:54:04;;;;;;;79.57;38.83;;;-1.30;99.90;;;;;;10454541;28;20258;-80
2024/01/17 18:59:28;;;;;;;88.40;44.23;;;-1.30;99.90;;;;;;10310923;28;20442;-82
2024/01/17 19:04:49;;;;;;;73.23;37.33;;;-1.30;99.90;;;;;;10297613;28;20553;-79
2024/01/17 19:10:11;;;;;;;71.30;36.60;;;-1.30;99.90;;;;;;10311408;28;20203;-80
2024/01/17 19:15:32;;;;;;;79.47;38.93;;;-1.30;99.90;;;;;;10310651;28;20267;-82
2024/01/17 19:20:54;;;;;;;69.00;33.60;;;-1.40;99.90;;;;;;10310406;28;20307;-82
2024/01/17 19:26:19;;;;;;;60.33;30.40;;;-1.30;99.90;;;;;;10398765;28;20257;-82
2024/01/17 19:31:41;;;;;;;60.03;29.20;;;-1.40;99.90;;;;;;10511537;28;20212;-82
2024/01/17 19:37:07;;;;;;;53.57;29.90;;;-1.40;99.90;;;;;;10520630;28;20192;-82
2024/01/17 19:42:31;;;;;;;66.47;31.17;;;-1.50;99.90;;;;;;10326811;28;20211;-82
2024/01/17 19:47:52;;;;;;;107.20;47.27;;;-1.40;99.90;;;;;;10270030;28;20232;-82
2024/01/17 19:53:13;;;;;;;73.20;34.83;;;-1.40;99.90;;;;;;10269410;29;20502;-82
2024/01/17 19:58:35;;;;;;;59.80;30.07;;;-1.30;99.90;;;;;;10380961;28;20207;-82
2024/01/17 20:03:56;;;;;;;60.63;30.03;;;-1.20;99.90;;;;;;10410634;28;20201;-82
2024/01/17 20:09:19;;;;;;;62.97;30.83;;;-1.20;99.90;;;;;;10309083;28;20488;-83
2024/01/17 20:14:42;;;;;;;63.10;31.03;;;-1.20;99.90;;;;;;10308746;28;20276;-82
2024/01/17 20:20:07;;;;;;;64.50;30.87;;;-1.30;99.90;;;;;;10395927;28;20231;-82
2024/01/17 20:25:28;;;;;;;64.23;31.00;;;-1.20;1.00;;;;;;10308472;28;20234;-83
2024/01/17 20:30:49;;;;;;;66.37;33.00;;;-1.20;99.90;;;;;;10452169;28;20207;-80
2024/01/17 20:36:13;;;;;;;64.40;30.53;;;-1.20;1.00;;;;;;10518739;28;20196;-79
2024/01/17 20:41:34;;;;;;;60.00;30.63;;;-1.10;1.00;;;;;;10407726;28;20228;-82
2024/01/17 20:46:56;;;;;;;62.90;32.67;;;-1.00;1.00;;;;;;10294314;28;20537;-79
2024/01/17 20:52:17;;;;;;;68.63;34.17;;;-1.10;99.90;;;;;;10308837;28;20197;-83
2024/01/17 20:57:39;;;;;;;61.17;31.17;;;-1.10;99.90;;;;;;10278279;28;20212;-82
2024/01/17 21:03:01;;;;;;;105.67;48.07;;;-1.00;1.00;;;;;;10371695;28;20219;-80
2024/01/17 21:08:22;;;;;;;95.17;42.67;;;-1.00;99.90;;;;;;10283775;28;20410;-80
2024/01/17 21:13:44;;;;;;;79.07;36.27;;;-1.10;1.00;;;;;;10392169;28;20200;-79
2024/01/17 21:19:07;;;;;;;80.03;34.60;;;-1.00;99.90;;;;;;10408314;28;20258;-78
2024/01/17 21:24:28;;;;;;;89.87;42.93;;;-1.00;1.00;;;;;;10306947;28;20377;-78
2024/01/17 21:29:50;;;;;;;75.53;35.07;;;-1.00;1.00;;;;;;10427437;28;20223;-78
2024/01/17 21:35:11;;;;;;;81.07;34.97;;;-1.00;99.90;;;;;;10324464;28;20243;-78
2024/01/17 21:40:34;;;;;;;76.50;33.73;;;-1.00;1.00;;;;;;10299840;28;20210;-78
2024/01/17 21:45:55;;;;;;;82.87;37.93;;;-1.00;1.00;;;;;;10313115;28;20545;-78
2024/01/17 21:51:17;;;;;;;69.33;33.30;;;-0.90;1.00;;;;;;10313029;28;20250;-78
2024/01/17 21:56:38;;;;;;;77.97;35.17;;;-0.90;1.00;;;;;;10299407;28;20250;-81
2024/01/17 22:02:00;;;;;;;74.27;33.37;;;-0.80;1.00;;;;;;10311104;28;20375;-78
2024/01/17 22:07:22;;;;;;;87.73;37.67;;;-0.80;1.00;;;;;;10400729;28;20226;-80
2024/01/17 22:12:43;;;;;;;89.17;39.07;;;-0.80;99.90;;;;;;10537962;28;20195;-78
2024/01/17 22:18:05;;;;;;;107.57;47.73;;;-0.80;1.00;;;;;;10321666;28;20251;-78
2024/01/17 22:23:26;;;;;;;99.17;41.47;;;-0.90;1.00;;;;;;10312529;28;20355;-79
2024/01/17 22:28:47;;;;;;;72.33;36.00;;;-0.80;1.00;;;;;;10310910;28;20234;-78
2024/01/17 22:34:08;;;;;;;86.00;38.37;;;-0.80;1.00;;;;;;10525465;28;20208;-79
2024/01/17 22:39:29;;;;;;;128.13;45.03;;;-0.80;1.00;;;;;;10508702;28;20207;-77
2024/01/17 22:44:51;;;;;;;160.37;48.97;;;-0.80;1.00;;;;;;10522785;28;20549;-78
2024/01/17 22:50:14;;;;;;;169.40;49.03;;;-0.80;1.00;;;;;;10523353;28;20427;-78
2024/01/17 22:55:36;;;;;;;133.17;47.17;;;-0.70;1.00;;;;;;10523013;28;20238;-78
2024/01/17 23:00:57;;;;;;;99.83;42.00;;;-0.70;1.00;;;;;;10397686;28;20255;-78
2024/01/17 23:06:18;;;;;;;82.97;35.73;;;-0.70;1.00;;;;;;10271792;28;20264;-78
2024/01/17 23:11:39;;;;;;;78.17;33.87;;;-0.80;1.00;;;;;;10386082;28;20205;-78
2024/01/17 23:17:01;;;;;;;79.97;34.80;;;-0.80;1.00;;;;;;10311173;28;20447;-78
2024/01/17 23:22:22;;;;;;;85.93;35.20;;;-0.80;1.00;;;;;;10310341;28;20200;-79
2024/01/17 23:27:45;;;;;;;113.23;40.47;;;-0.80;1.00;;;;;;10397615;28;20307;-78
2024/01/17 23:33:07;;;;;;;135.93;44.23;;;-0.80;1.00;;;;;;10384941;28;20197;-78
2024/01/17 23:38:28;;;;;;;128.63;46.23;;;-0.80;1.00;;;;;;10310956;28;20201;-78
2024/01/17 23:43:49;;;;;;;124.40;45.37;;;-0.70;1.00;;;;;;10310617;28;20200;-77
2024/01/17 23:49:10;;;;;;;85.87;35.43;;;-0.60;1.00;;;;;;10410972;28;20480;-79
2024/01/17 23:54:31;;;;;;;70.67;32.70;;;-0.60;1.00;;;;;;10310250;28;20199;-78
2024/01/17 23:59:53;;;;;;;69.10;31.63;;;-0.60;99.90;;;;;;10328404;28;20228;-78
